createdAt,value
2018-10-11T17:44:25.825Z,24.07
2018-10-11T17:46:54.489Z,23.80
2018-10-11T17:49:23.035Z,23.27
2018-10-11T17:51:51.688Z,23.97
2018-10-11T17:54:20.240Z,24.03
2018-10-11T17:56:48.840Z,24.17
2018-10-11T17:59:17.436Z,23.77
2018-10-11T18:01:45.975Z,23.77
2018-10-11T18:04:14.533Z,24.17
2018-10-11T18:06:43.112Z,23.97
2018-10-11T18:09:12.382Z,24.30
2018-10-11T18:11:40.924Z,24.50
2018-10-11T18:14:10.172Z,24.70
2018-10-11T18:16:38.724Z,24.17
2018-10-11T18:19:07.309Z,24.10
2018-10-11T18:21:35.936Z,23.27
2018-10-11T18:24:04.469Z,24.27
2018-10-11T18:26:33.425Z,23.93
2018-10-11T18:29:02.062Z,24.17
2018-10-11T18:31:30.621Z,23.37
2018-10-11T18:33:59.179Z,23.57
2018-10-11T18:36:27.819Z,23.53
2018-10-11T18:38:56.600Z,23.80
2018-10-11T18:41:25.360Z,22.97
2018-10-11T18:43:53.893Z,22.33
2018-10-11T18:46:22.479Z,22.67
2018-10-11T18:48:51.147Z,23.03
2018-10-11T18:51:19.743Z,23.03
2018-10-11T18:53:48.296Z,22.87
2018-10-11T18:56:16.927Z,22.30
2018-10-11T18:58:45.463Z,21.63
2018-10-11T19:01:14.055Z,22.50
2018-10-11T19:03:42.609Z,22.03
2018-10-11T19:06:11.187Z,22.77
2018-10-11T19:08:39.813Z,22.20
2018-10-11T19:11:08.554Z,22.70
2018-10-11T19:13:37.133Z,21.53
2018-10-11T19:16:05.709Z,22.17
2018-10-11T19:18:34.490Z,20.90
2018-10-11T19:21:03.041Z,21.27
2018-10-11T19:23:31.648Z,21.80
2018-10-11T19:26:00.222Z,21.03
2018-10-11T19:28:28.787Z,21.77
2018-10-11T19:30:57.494Z,21.27
2018-10-11T19:33:26.044Z,20.83
2018-10-11T19:35:54.617Z,20.97
2018-10-11T19:38:23.180Z,20.13
2018-10-11T19:40:51.733Z,20.53
2018-10-11T19:43:20.287Z,20.40
2018-10-11T19:45:48.990Z,20.30
2018-10-11T19:48:17.646Z,21.03
2018-10-11T19:50:46.375Z,21.57
2018-10-11T19:53:15.067Z,20.87
2018-10-11T19:55:43.828Z,21.20
2018-10-11T19:58:12.407Z,21.00
2018-10-11T20:00:40.984Z,21.23
2018-10-11T20:03:09.549Z,21.07
2018-10-11T20:05:38.116Z,21.60
2018-10-11T20:08:06.809Z,21.73
2018-10-11T20:10:35.775Z,21.20
2018-10-11T20:13:04.385Z,21.07
2018-10-11T20:15:32.971Z,21.70
2018-10-11T20:18:03.902Z,20.83
2018-10-11T20:20:30.176Z,21.03
2018-10-11T20:22:58.768Z,20.87
2018-10-11T20:25:27.347Z,21.10
2018-10-11T20:27:56.074Z,21.93
2018-10-11T20:30:24.629Z,22.20
2018-10-11T20:32:53.183Z,21.30
2018-10-11T20:35:22.194Z,22.07
2018-10-11T20:37:50.855Z,21.57
2018-10-11T20:40:19.450Z,22.30
2018-10-11T20:42:48.272Z,21.27
2018-10-11T20:45:16.886Z,20.73
2018-10-11T20:47:45.428Z,21.33
2018-10-11T20:50:14.008Z,21.23
2018-10-11T20:52:42.583Z,21.63
2018-10-11T20:55:11.191Z,21.20
2018-10-11T20:57:39.765Z,21.60
2018-10-11T21:00:09.253Z,20.97
2018-10-11T21:02:38.592Z,22.63
2018-10-11T21:05:07.483Z,22.87
2018-10-11T21:07:36.020Z,22.73
2018-10-11T21:10:04.716Z,22.20
2018-10-11T21:12:33.260Z,22.87
2018-10-11T21:15:01.840Z,21.50
2018-10-11T21:17:30.365Z,22.23
2018-10-11T21:19:58.947Z,21.07
2018-10-11T21:22:27.479Z,21.87
2018-10-11T21:24:56.011Z,21.17
2018-10-11T21:27:24.568Z,21.87
2018-10-11T21:29:53.100Z,21.80
2018-10-11T21:32:21.692Z,21.30
2018-10-11T21:34:50.225Z,22.80
2018-10-11T21:37:18.781Z,23.00
2018-10-11T21:39:47.331Z,23.17
2018-10-11T21:42:15.910Z,22.83
2018-10-11T21:44:44.446Z,22.57
2018-10-11T21:47:13.100Z,22.77
2018-10-11T21:49:41.671Z,23.23
2018-10-11T21:52:10.370Z,22.23
2018-10-11T21:54:40.032Z,22.03
2018-10-11T21:57:08.617Z,22.47
2018-10-11T21:59:37.174Z,23.47
2018-10-11T22:02:05.755Z,22.83
2018-10-11T22:04:34.293Z,22.20
2018-10-11T22:07:02.868Z,22.90
2018-10-11T22:09:31.472Z,22.53
2018-10-11T22:12:00.033Z,23.03
2018-10-11T22:14:28.641Z,22.77
2018-10-11T22:16:57.224Z,23.47
2018-10-11T22:19:25.803Z,23.57
2018-10-11T22:21:54.352Z,23.50
2018-10-11T22:24:22.885Z,24.00
2018-10-11T22:26:51.414Z,23.83
2018-10-11T22:29:19.970Z,23.53
2018-10-11T22:31:48.535Z,23.33
2018-10-11T22:34:17.100Z,23.47
2018-10-11T22:36:45.735Z,22.37
2018-10-11T22:39:14.287Z,23.93
2018-10-11T22:41:42.949Z,23.77
2018-10-11T22:44:12.301Z,23.23
2018-10-11T22:46:41.706Z,23.97
2018-10-11T22:49:10.787Z,22.93
2018-10-11T22:51:40.195Z,24.13
2018-10-11T22:54:09.867Z,23.77
2018-10-11T22:56:39.312Z,24.23
2018-10-11T22:59:07.856Z,23.73
2018-10-11T23:01:36.426Z,23.80
2018-10-11T23:04:05.047Z,23.00
2018-10-11T23:06:33.635Z,23.70
2018-10-11T23:09:02.222Z,23.07
2018-10-11T23:11:30.731Z,23.93
2018-10-11T23:13:59.531Z,23.17
2018-10-11T23:16:28.091Z,23.40
2018-10-11T23:18:56.756Z,22.20
2018-10-11T23:21:25.284Z,22.90
2018-10-11T23:23:53.970Z,21.90
2018-10-11T23:26:22.500Z,22.43
2018-10-11T23:28:51.051Z,23.00
2018-10-11T23:31:19.687Z,23.03
2018-10-11T23:33:48.230Z,22.17
2018-10-11T23:36:16.792Z,22.97
2018-10-11T23:38:45.346Z,22.10
2018-10-11T23:41:13.902Z,22.10
2018-10-11T23:43:42.439Z,22.43
2018-10-11T23:46:11.064Z,21.70
2018-10-11T23:48:40.201Z,22.30
2018-10-11T23:51:08.739Z,21.60
2018-10-11T23:53:37.381Z,21.47
2018-10-11T23:56:06.687Z,21.10
2018-10-11T23:58:35.256Z,21.87
